sensor_id;sensor_type;location;lat;lon;timestamp;temperature;humidity
21085;DHT22;72320;50.082;20.000;2024-01-30T00:00:19;18.00;33.40
21085;DHT22;72320;50.082;20.000;2024-01-30T00:02:46;17.90;34.20
21085;DHT22;72320;50.082;20.000;2024-01-30T00:05:12;18.00;34.00
21085;DHT22;72320;50.082;20.000;2024-01-30T00:07:38;18.00;34.00
21085;DHT22;72320;50.082;20.000;2024-01-30T00:10:04;18.00;34.20
21085;DHT22;72320;50.082;20.000;2024-01-30T00:12:31;18.00;33.80
21085;DHT22;72320;50.082;20.000;2024-01-30T00:14:57;18.00;33.80
21085;DHT22;72320;50.082;20.000;2024-01-30T00:17:23;18.00;34.00
21085;DHT22;72320;50.082;20.000;2024-01-30T00:19:50;18.00;34.40
21085;DHT22;72320;50.082;20.000;2024-01-30T00:22:16;18.00;34.00
21085;DHT22;72320;50.082;20.000;2024-01-30T00:24:42;18.00;34.10
21085;DHT22;72320;50.082;20.000;2024-01-30T00:27:07;17.90;33.50
21085;DHT22;72320;50.082;20.000;2024-01-30T00:29:34;17.90;34.20
21085;DHT22;72320;50.082;20.000;2024-01-30T00:31:59;17.90;33.90
21085;DHT22;72320;50.082;20.000;2024-01-30T00:34:25;17.90;33.80
21085;DHT22;72320;50.082;20.000;2024-01-30T00:36:51;17.90;34.00
21085;DHT22;72320;50.082;20.000;2024-01-30T00:39:17;17.90;33.50
21085;DHT22;72320;50.082;20.000;2024-01-30T00:41:44;17.90;34.20
21085;DHT22;72320;50.082;20.000;2024-01-30T00:44:10;17.90;34.60
21085;DHT22;72320;50.082;20.000;2024-01-30T00:46:36;17.90;34.50
21085;DHT22;72320;50.082;20.000;2024-01-30T00:49:02;17.90;34.20
21085;DHT22;72320;50.082;20.000;2024-01-30T00:51:28;18.00;34.40
21085;DHT22;72320;50.082;20.000;2024-01-30T00:53:55;17.90;34.20
21085;DHT22;72320;50.082;20.000;2024-01-30T00:56:21;18.00;34.30
21085;DHT22;72320;50.082;20.000;2024-01-30T00:58:46;18.00;34.30
21085;DHT22;72320;50.082;20.000;2024-01-30T01:01:12;17.90;34.30
21085;DHT22;72320;50.082;20.000;2024-01-30T01:03:38;18.00;34.50
21085;DHT22;72320;50.082;20.000;2024-01-30T01:06:06;18.00;34.70
21085;DHT22;72320;50.082;20.000;2024-01-30T01:08:32;18.00;34.40
21085;DHT22;72320;50.082;20.000;2024-01-30T01:10:57;18.00;34.40
21085;DHT22;72320;50.082;20.000;2024-01-30T01:13:23;18.00;33.80
21085;DHT22;72320;50.082;20.000;2024-01-30T01:15:49;18.00;33.90
21085;DHT22;72320;50.082;20.000;2024-01-30T01:18:14;18.00;33.80
21085;DHT22;72320;50.082;20.000;2024-01-30T01:20:41;17.90;33.50
21085;DHT22;72320;50.082;20.000;2024-01-30T01:23:07;17.90;33.60
21085;DHT22;72320;50.082;20.000;2024-01-30T01:25:32;17.90;33.80
21085;DHT22;72320;50.082;20.000;2024-01-30T01:27:58;17.90;33.80
21085;DHT22;72320;50.082;20.000;2024-01-30T01:30:26;17.90;33.70
21085;DHT22;72320;50.082;20.000;2024-01-30T01:32:53;17.80;33.70
21085;DHT22;72320;50.082;20.000;2024-01-30T01:35:23;17.70;33.80
21085;DHT22;72320;50.082;20.000;2024-01-30T01:37:53;17.70;33.40
21085;DHT22;72320;50.082;20.000;2024-01-30T01:40:24;17.70;33.40
21085;DHT22;72320;50.082;20.000;2024-01-30T01:42:52;17.70;33.50
21085;DHT22;72320;50.082;20.000;2024-01-30T01:45:20;17.60;33.30
21085;DHT22;72320;50.082;20.000;2024-01-30T01:47:55;17.60;33.40
21085;DHT22;72320;50.082;20.000;2024-01-30T01:50:21;17.60;34.10
21085;DHT22;72320;50.082;20.000;2024-01-30T01:52:48;17.60;33.40
21085;DHT22;72320;50.082;20.000;2024-01-30T01:55:15;17.50;33.20
21085;DHT22;72320;50.082;20.000;2024-01-30T01:57:47;17.40;33.10
21085;DHT22;72320;50.082;20.000;2024-01-30T02:00:13;17.40;34.00
21085;DHT22;72320;50.082;20.000;2024-01-30T02:02:41;17.40;34.00
21085;DHT22;72320;50.082;20.000;2024-01-30T02:05:09;17.40;34.10
21085;DHT22;72320;50.082;20.000;2024-01-30T02:07:34;17.40;34.50
21085;DHT22;72320;50.082;20.000;2024-01-30T02:10:00;17.50;34.00
21085;DHT22;72320;50.082;20.000;2024-01-30T02:12:26;17.50;34.20
21085;DHT22;72320;50.082;20.000;2024-01-30T02:14:51;17.50;34.00
21085;DHT22;72320;50.082;20.000;2024-01-30T02:17:18;17.50;34.20
21085;DHT22;72320;50.082;20.000;2024-01-30T02:19:44;17.60;33.90
21085;DHT22;72320;50.082;20.000;2024-01-30T02:22:10;17.60;33.40
21085;DHT22;72320;50.082;20.000;2024-01-30T02:24:36;17.60;33.60
21085;DHT22;72320;50.082;20.000;2024-01-30T02:27:02;17.50;33.90
21085;DHT22;72320;50.082;20.000;2024-01-30T02:29:28;17.50;34.00
21085;DHT22;72320;50.082;20.000;2024-01-30T02:31:53;17.60;33.80
21085;DHT22;72320;50.082;20.000;2024-01-30T02:34:19;17.60;33.90
21085;DHT22;72320;50.082;20.000;2024-01-30T02:36:45;17.60;34.10
21085;DHT22;72320;50.082;20.000;2024-01-30T02:39:11;17.60;34.00
21085;DHT22;72320;50.082;20.000;2024-01-30T02:41:37;17.60;33.80
21085;DHT22;72320;50.082;20.000;2024-01-30T02:44:03;17.60;33.30
21085;DHT22;72320;50.082;20.000;2024-01-30T02:46:29;17.60;33.30
21085;DHT22;72320;50.082;20.000;2024-01-30T02:48:55;17.60;33.40
21085;DHT22;72320;50.082;20.000;2024-01-30T02:51:21;17.50;33.50
21085;DHT22;72320;50.082;20.000;2024-01-30T02:53:47;17.50;33.30
21085;DHT22;72320;50.082;20.000;2024-01-30T02:56:12;17.50;33.20
21085;DHT22;72320;50.082;20.000;2024-01-30T02:58:39;17.50;33.20
21085;DHT22;72320;50.082;20.000;2024-01-30T03:01:06;17.40;33.30
21085;DHT22;72320;50.082;20.000;2024-01-30T03:03:32;17.50;33.20
21085;DHT22;72320;50.082;20.000;2024-01-30T03:06:00;17.50;33.10
21085;DHT22;72320;50.082;20.000;2024-01-30T03:08:27;17.40;33.40
21085;DHT22;72320;50.082;20.000;2024-01-30T03:10:53;17.40;33.30
21085;DHT22;72320;50.082;20.000;2024-01-30T03:13:19;17.40;33.20
21085;DHT22;72320;50.082;20.000;2024-01-30T03:15:45;17.40;33.60
21085;DHT22;72320;50.082;20.000;2024-01-30T03:18:11;17.30;33.30
21085;DHT22;72320;50.082;20.000;2024-01-30T03:20:36;17.30;33.70
21085;DHT22;72320;50.082;20.000;2024-01-30T03:23:02;17.30;33.80
21085;DHT22;72320;50.082;20.000;2024-01-30T03:25:28;17.30;33.90
21085;DHT22;72320;50.082;20.000;2024-01-30T03:27:54;17.30;33.90
21085;DHT22;72320;50.082;20.000;2024-01-30T03:30:20;17.30;34.00
21085;DHT22;72320;50.082;20.000;2024-01-30T03:32:46;17.40;33.80
21085;DHT22;72320;50.082;20.000;2024-01-30T03:35:11;17.40;33.50
21085;DHT22;72320;50.082;20.000;2024-01-30T03:37:37;17.40;33.20
21085;DHT22;72320;50.082;20.000;2024-01-30T03:40:03;17.40;33.30
21085;DHT22;72320;50.082;20.000;2024-01-30T03:42:29;17.40;33.30
21085;DHT22;72320;50.082;20.000;2024-01-30T03:44:56;17.40;33.30
21085;DHT22;72320;50.082;20.000;2024-01-30T03:47:22;17.40;33.20
21085;DHT22;72320;50.082;20.000;2024-01-30T03:49:47;17.30;33.30
21085;DHT22;72320;50.082;20.000;2024-01-30T03:52:13;17.20;33.30
21085;DHT22;72320;50.082;20.000;2024-01-30T03:54:39;17.20;33.20
21085;DHT22;72320;50.082;20.000;2024-01-30T03:57:05;17.20;33.50
21085;DHT22;72320;50.082;20.000;2024-01-30T03:59:31;17.20;33.30
21085;DHT22;72320;50.082;20.000;2024-01-30T04:01:56;17.20;33.60
21085;DHT22;72320;50.082;20.000;2024-01-30T04:04:22;17.20;33.30
21085;DHT22;72320;50.082;20.000;2024-01-30T04:06:48;17.20;33.40
21085;DHT22;72320;50.082;20.000;2024-01-30T04:09:14;17.10;33.70
21085;DHT22;72320;50.082;20.000;2024-01-30T04:11:40;17.10;33.40
21085;DHT22;72320;50.082;20.000;2024-01-30T04:14:07;17.20;33.20
21085;DHT22;72320;50.082;20.000;2024-01-30T04:16:34;17.20;33.30
21085;DHT22;72320;50.082;20.000;2024-01-30T04:19:00;17.20;33.70
21085;DHT22;72320;50.082;20.000;2024-01-30T04:21:25;17.20;33.60
21085;DHT22;72320;50.082;20.000;2024-01-30T04:23:51;17.10;33.70
21085;DHT22;72320;50.082;20.000;2024-01-30T04:26:17;17.10;33.60
21085;DHT22;72320;50.082;20.000;2024-01-30T04:28:44;17.20;33.90
21085;DHT22;72320;50.082;20.000;2024-01-30T04:31:10;17.10;33.70
21085;DHT22;72320;50.082;20.000;2024-01-30T04:33:36;17.10;33.70
21085;DHT22;72320;50.082;20.000;2024-01-30T04:36:02;17.20;33.40
21085;DHT22;72320;50.082;20.000;2024-01-30T04:38:30;17.10;33.40
21085;DHT22;72320;50.082;20.000;2024-01-30T04:40:57;17.10;33.50
21085;DHT22;72320;50.082;20.000;2024-01-30T04:43:23;17.20;33.60
21085;DHT22;72320;50.082;20.000;2024-01-30T04:45:49;17.20;33.70
21085;DHT22;72320;50.082;20.000;2024-01-30T04:48:15;17.20;33.50
21085;DHT22;72320;50.082;20.000;2024-01-30T04:50:41;17.20;33.50
21085;DHT22;72320;50.082;20.000;2024-01-30T04:53:07;17.20;33.30
21085;DHT22;72320;50.082;20.000;2024-01-30T04:55:33;17.10;33.60
21085;DHT22;72320;50.082;20.000;2024-01-30T04:58:01;17.10;33.40
21085;DHT22;72320;50.082;20.000;2024-01-30T05:00:26;17.10;33.60
21085;DHT22;72320;50.082;20.000;2024-01-30T05:02:53;17.10;33.70
21085;DHT22;72320;50.082;20.000;2024-01-30T05:05:21;17.10;33.80
21085;DHT22;72320;50.082;20.000;2024-01-30T05:07:47;17.10;33.50
21085;DHT22;72320;50.082;20.000;2024-01-30T05:10:13;17.10;33.60
21085;DHT22;72320;50.082;20.000;2024-01-30T05:12:39;17.10;33.40
21085;DHT22;72320;50.082;20.000;2024-01-30T05:15:05;17.10;33.30
21085;DHT22;72320;50.082;20.000;2024-01-30T05:17:32;17.10;33.00
21085;DHT22;72320;50.082;20.000;2024-01-30T05:19:58;17.10;33.10
21085;DHT22;72320;50.082;20.000;2024-01-30T05:22:24;17.10;33.20
21085;DHT22;72320;50.082;20.000;2024-01-30T05:24:50;17.20;33.10
21085;DHT22;72320;50.082;20.000;2024-01-30T05:27:15;17.10;33.00
21085;DHT22;72320;50.082;20.000;2024-01-30T05:29:41;17.10;33.10
21085;DHT22;72320;50.082;20.000;2024-01-30T05:32:07;17.10;33.00
21085;DHT22;72320;50.082;20.000;2024-01-30T05:34:33;17.10;33.10
21085;DHT22;72320;50.082;20.000;2024-01-30T05:36:58;17.10;33.10
21085;DHT22;72320;50.082;20.000;2024-01-30T05:39:24;17.10;32.80
21085;DHT22;72320;50.082;20.000;2024-01-30T05:41:50;17.10;33.00
21085;DHT22;72320;50.082;20.000;2024-01-30T05:44:16;17.10;33.00
21085;DHT22;72320;50.082;20.000;2024-01-30T05:46:42;17.10;32.90
21085;DHT22;72320;50.082;20.000;2024-01-30T05:49:07;17.00;32.60
21085;DHT22;72320;50.082;20.000;2024-01-30T05:51:33;17.00;32.60
21085;DHT22;72320;50.082;20.000;2024-01-30T05:53:59;17.00;32.60
21085;DHT22;72320;50.082;20.000;2024-01-30T05:56:25;17.00;32.90
21085;DHT22;72320;50.082;20.000;2024-01-30T05:58:51;16.90;32.70
21085;DHT22;72320;50.082;20.000;2024-01-30T06:01:17;16.90;32.80
21085;DHT22;72320;50.082;20.000;2024-01-30T06:03:42;16.90;32.90
21085;DHT22;72320;50.082;20.000;2024-01-30T06:06:09;16.90;33.00
21085;DHT22;72320;50.082;20.000;2024-01-30T06:08:35;16.90;33.00
21085;DHT22;72320;50.082;20.000;2024-01-30T06:11:00;17.00;33.10
21085;DHT22;72320;50.082;20.000;2024-01-30T06:13:26;17.00;33.20
21085;DHT22;72320;50.082;20.000;2024-01-30T06:15:52;17.00;33.00
21085;DHT22;72320;50.082;20.000;2024-01-30T06:18:18;17.00;33.10
21085;DHT22;72320;50.082;20.000;2024-01-30T06:20:44;17.00;33.30
21085;DHT22;72320;50.082;20.000;2024-01-30T06:23:10;17.00;33.80
21085;DHT22;72320;50.082;20.000;2024-01-30T06:25:38;17.00;33.00
21085;DHT22;72320;50.082;20.000;2024-01-30T06:28:04;17.00;33.20
21085;DHT22;72320;50.082;20.000;2024-01-30T06:30:30;17.00;33.30
21085;DHT22;72320;50.082;20.000;2024-01-30T06:32:56;17.00;33.20
21085;DHT22;72320;50.082;20.000;2024-01-30T06:35:21;17.00;33.30
21085;DHT22;72320;50.082;20.000;2024-01-30T06:37:47;17.00;33.20
21085;DHT22;72320;50.082;20.000;2024-01-30T06:40:13;17.10;33.30
21085;DHT22;72320;50.082;20.000;2024-01-30T06:42:39;17.00;33.00
21085;DHT22;72320;50.082;20.000;2024-01-30T06:45:05;17.00;33.00
21085;DHT22;72320;50.082;20.000;2024-01-30T06:47:31;16.90;33.10
21085;DHT22;72320;50.082;20.000;2024-01-30T06:49:57;17.00;33.00
21085;DHT22;72320;50.082;20.000;2024-01-30T06:52:23;17.00;33.30
21085;DHT22;72320;50.082;20.000;2024-01-30T06:54:49;17.10;33.30
21085;DHT22;72320;50.082;20.000;2024-01-30T06:57:20;17.10;33.20
21085;DHT22;72320;50.082;20.000;2024-01-30T06:59:46;17.10;33.50
21085;DHT22;72320;50.082;20.000;2024-01-30T07:02:12;17.10;33.40
21085;DHT22;72320;50.082;20.000;2024-01-30T07:04:38;17.10;34.10
21085;DHT22;72320;50.082;20.000;2024-01-30T07:07:04;17.20;33.80
21085;DHT22;72320;50.082;20.000;2024-01-30T07:09:31;17.30;33.70
21085;DHT22;72320;50.082;20.000;2024-01-30T07:11:57;17.40;33.60
21085;DHT22;72320;50.082;20.000;2024-01-30T07:14:24;17.50;33.90
21085;DHT22;72320;50.082;20.000;2024-01-30T07:16:51;17.60;34.00
21085;DHT22;72320;50.082;20.000;2024-01-30T07:19:16;17.60;33.70
21085;DHT22;72320;50.082;20.000;2024-01-30T07:21:42;17.70;33.90
21085;DHT22;72320;50.082;20.000;2024-01-30T07:24:08;17.70;33.80
21085;DHT22;72320;50.082;20.000;2024-01-30T07:26:34;17.80;33.80
21085;DHT22;72320;50.082;20.000;2024-01-30T07:29:01;17.90;33.70
21085;DHT22;72320;50.082;20.000;2024-01-30T07:31:26;18.00;33.70
21085;DHT22;72320;50.082;20.000;2024-01-30T07:33:52;18.10;33.70
21085;DHT22;72320;50.082;20.000;2024-01-30T07:36:19;18.10;34.20
21085;DHT22;72320;50.082;20.000;2024-01-30T07:38:45;18.20;33.80
21085;DHT22;72320;50.082;20.000;2024-01-30T07:41:11;18.20;33.60
21085;DHT22;72320;50.082;20.000;2024-01-30T07:43:38;18.30;33.60
21085;DHT22;72320;50.082;20.000;2024-01-30T07:46:04;18.40;33.60
21085;DHT22;72320;50.082;20.000;2024-01-30T07:48:32;18.50;33.60
21085;DHT22;72320;50.082;20.000;2024-01-30T07:50:59;18.50;33.50
21085;DHT22;72320;50.082;20.000;2024-01-30T07:53:25;18.50;33.40
21085;DHT22;72320;50.082;20.000;2024-01-30T07:55:51;18.60;33.50
21085;DHT22;72320;50.082;20.000;2024-01-30T07:58:17;18.80;33.50
21085;DHT22;72320;50.082;20.000;2024-01-30T08:00:44;18.90;33.20
21085;DHT22;72320;50.082;20.000;2024-01-30T08:03:10;19.00;33.50
21085;DHT22;72320;50.082;20.000;2024-01-30T08:05:36;19.00;33.60
21085;DHT22;72320;50.082;20.000;2024-01-30T08:08:03;19.10;33.40
21085;DHT22;72320;50.082;20.000;2024-01-30T08:10:29;19.20;33.60
21085;DHT22;72320;50.082;20.000;2024-01-30T08:12:55;19.20;33.30
21085;DHT22;72320;50.082;20.000;2024-01-30T08:15:20;19.30;33.40
21085;DHT22;72320;50.082;20.000;2024-01-30T08:17:46;19.30;33.50
21085;DHT22;72320;50.082;20.000;2024-01-30T08:20:12;19.40;33.70
21085;DHT22;72320;50.082;20.000;2024-01-30T08:22:39;19.50;33.40
21085;DHT22;72320;50.082;20.000;2024-01-30T08:25:07;19.60;33.50
21085;DHT22;72320;50.082;20.000;2024-01-30T08:27:35;19.70;33.40
21085;DHT22;72320;50.082;20.000;2024-01-30T08:30:04;19.70;33.20
21085;DHT22;72320;50.082;20.000;2024-01-30T08:32:32;19.80;33.60
21085;DHT22;72320;50.082;20.000;2024-01-30T08:34:58;19.80;33.20
21085;DHT22;72320;50.082;20.000;2024-01-30T08:37:25;19.90;33.20
21085;DHT22;72320;50.082;20.000;2024-01-30T08:39:51;20.00;33.70
21085;DHT22;72320;50.082;20.000;2024-01-30T08:42:16;20.00;32.90
21085;DHT22;72320;50.082;20.000;2024-01-30T08:44:47;20.10;33.20
21085;DHT22;72320;50.082;20.000;2024-01-30T08:47:15;20.10;33.10
21085;DHT22;72320;50.082;20.000;2024-01-30T08:49:42;20.30;33.50
21085;DHT22;72320;50.082;20.000;2024-01-30T08:52:10;20.30;33.30
21085;DHT22;72320;50.082;20.000;2024-01-30T08:54:36;20.50;33.00
21085;DHT22;72320;50.082;20.000;2024-01-30T08:57:02;20.60;32.80
21085;DHT22;72320;50.082;20.000;2024-01-30T08:59:29;20.70;32.60
21085;DHT22;72320;50.082;20.000;2024-01-30T09:01:55;20.70;32.60
21085;DHT22;72320;50.082;20.000;2024-01-30T09:04:23;20.90;32.90
21085;DHT22;72320;50.082;20.000;2024-01-30T09:06:49;21.00;33.00
21085;DHT22;72320;50.082;20.000;2024-01-30T09:09:15;21.20;32.20
21085;DHT22;72320;50.082;20.000;2024-01-30T09:11:41;21.40;32.10
21085;DHT22;72320;50.082;20.000;2024-01-30T09:14:08;21.80;32.20
21085;DHT22;72320;50.082;20.000;2024-01-30T09:16:34;22.00;31.60
21085;DHT22;72320;50.082;20.000;2024-01-30T09:19:01;22.00;30.80
21085;DHT22;72320;50.082;20.000;2024-01-30T09:21:26;22.10;30.70
21085;DHT22;72320;50.082;20.000;2024-01-30T09:24:00;22.20;30.00
21085;DHT22;72320;50.082;20.000;2024-01-30T09:26:31;22.10;30.50
21085;DHT22;72320;50.082;20.000;2024-01-30T09:28:56;22.10;30.00
21085;DHT22;72320;50.082;20.000;2024-01-30T09:31:22;22.20;30.10
21085;DHT22;72320;50.082;20.000;2024-01-30T09:33:48;22.10;30.10
21085;DHT22;72320;50.082;20.000;2024-01-30T09:36:14;22.20;29.90
21085;DHT22;72320;50.082;20.000;2024-01-30T09:38:45;22.20;29.40
21085;DHT22;72320;50.082;20.000;2024-01-30T09:41:12;22.20;29.80
21085;DHT22;72320;50.082;20.000;2024-01-30T09:43:38;22.30;29.50
21085;DHT22;72320;50.082;20.000;2024-01-30T09:46:08;22.20;29.40
21085;DHT22;72320;50.082;20.000;2024-01-30T09:48:41;22.10;38.80
21085;DHT22;72320;50.082;20.000;2024-01-30T09:51:08;22.20;31.70
21085;DHT22;72320;50.082;20.000;2024-01-30T09:53:35;22.40;30.80
21085;DHT22;72320;50.082;20.000;2024-01-30T09:56:03;22.50;30.40
21085;DHT22;72320;50.082;20.000;2024-01-30T09:58:30;22.50;29.70
21085;DHT22;72320;50.082;20.000;2024-01-30T10:00:56;22.50;29.50
21085;DHT22;72320;50.082;20.000;2024-01-30T10:03:22;22.40;29.70
21085;DHT22;72320;50.082;20.000;2024-01-30T10:05:51;22.40;30.40
21085;DHT22;72320;50.082;20.000;2024-01-30T10:08:20;22.40;29.80
21085;DHT22;72320;50.082;20.000;2024-01-30T10:10:47;22.60;29.10
21085;DHT22;72320;50.082;20.000;2024-01-30T10:13:13;22.40;30.30
21085;DHT22;72320;50.082;20.000;2024-01-30T10:15:39;22.30;29.90
21085;DHT22;72320;50.082;20.000;2024-01-30T10:18:05;22.40;29.60
21085;DHT22;72320;50.082;20.000;2024-01-30T10:20:32;22.30;29.90
21085;DHT22;72320;50.082;20.000;2024-01-30T10:22:59;22.20;29.90
21085;DHT22;72320;50.082;20.000;2024-01-30T10:25:25;22.50;29.50
21085;DHT22;72320;50.082;20.000;2024-01-30T10:27:55;22.70;28.80
21085;DHT22;72320;50.082;20.000;2024-01-30T10:30:21;23.00;29.00
21085;DHT22;72320;50.082;20.000;2024-01-30T10:32:48;22.90;29.00
21085;DHT22;72320;50.082;20.000;2024-01-30T10:35:14;23.00;28.30
21085;DHT22;72320;50.082;20.000;2024-01-30T10:37:43;23.20;28.10
21085;DHT22;72320;50.082;20.000;2024-01-30T10:40:09;23.20;28.20
21085;DHT22;72320;50.082;20.000;2024-01-30T10:42:42;23.30;27.90
21085;DHT22;72320;50.082;20.000;2024-01-30T10:45:10;23.30;28.20
21085;DHT22;72320;50.082;20.000;2024-01-30T10:47:43;23.40;28.90
21085;DHT22;72320;50.082;20.000;2024-01-30T10:50:15;23.40;28.30
21085;DHT22;72320;50.082;20.000;2024-01-30T10:52:42;23.40;27.90
21085;DHT22;72320;50.082;20.000;2024-01-30T10:55:09;23.50;26.90
21085;DHT22;72320;50.082;20.000;2024-01-30T10:57:36;23.60;28.20
21085;DHT22;72320;50.082;20.000;2024-01-30T11:00:03;23.70;27.00
21085;DHT22;72320;50.082;20.000;2024-01-30T11:02:39;23.80;26.80
21085;DHT22;72320;50.082;20.000;2024-01-30T11:05:08;23.90;27.30
21085;DHT22;72320;50.082;20.000;2024-01-30T11:07:35;23.80;27.50
21085;DHT22;72320;50.082;20.000;2024-01-30T11:10:06;23.70;27.00
21085;DHT22;72320;50.082;20.000;2024-01-30T11:12:39;23.60;27.10
21085;DHT22;72320;50.082;20.000;2024-01-30T11:15:15;23.80;26.50
21085;DHT22;72320;50.082;20.000;2024-01-30T11:23:21;23.80;27.00
21085;DHT22;72320;50.082;20.000;2024-01-30T11:25:48;23.70;27.00
21085;DHT22;72320;50.082;20.000;2024-01-30T11:28:23;23.70;26.60
21085;DHT22;72320;50.082;20.000;2024-01-30T11:30:49;23.80;26.20
21085;DHT22;72320;50.082;20.000;2024-01-30T11:33:26;24.00;25.90
21085;DHT22;72320;50.082;20.000;2024-01-30T11:35:58;23.90;26.50
21085;DHT22;72320;50.082;20.000;2024-01-30T11:38:33;24.10;25.70
21085;DHT22;72320;50.082;20.000;2024-01-30T11:40:59;24.20;25.30
21085;DHT22;72320;50.082;20.000;2024-01-30T11:43:26;24.40;25.70
21085;DHT22;72320;50.082;20.000;2024-01-30T11:45:51;24.40;25.20
21085;DHT22;72320;50.082;20.000;2024-01-30T11:48:17;24.50;24.90
21085;DHT22;72320;50.082;20.000;2024-01-30T11:50:43;24.70;24.70
21085;DHT22;72320;50.082;20.000;2024-01-30T11:53:10;24.60;24.80
21085;DHT22;72320;50.082;20.000;2024-01-30T11:55:36;24.70;24.60
21085;DHT22;72320;50.082;20.000;2024-01-30T11:58:03;24.70;24.80
21085;DHT22;72320;50.082;20.000;2024-01-30T12:00:32;24.60;25.40
21085;DHT22;72320;50.082;20.000;2024-01-30T12:02:58;24.70;24.50
21085;DHT22;72320;50.082;20.000;2024-01-30T12:05:26;24.80;24.30
21085;DHT22;72320;50.082;20.000;2024-01-30T12:07:52;25.00;24.20
21085;DHT22;72320;50.082;20.000;2024-01-30T12:10:19;25.10;24.20
21085;DHT22;72320;50.082;20.000;2024-01-30T12:12:46;25.20;24.10
21085;DHT22;72320;50.082;20.000;2024-01-30T12:15:15;25.30;24.20
21085;DHT22;72320;50.082;20.000;2024-01-30T12:17:42;25.20;24.30
21085;DHT22;72320;50.082;20.000;2024-01-30T12:22:39;25.40;23.50
21085;DHT22;72320;50.082;20.000;2024-01-30T12:25:11;25.40;24.30
21085;DHT22;72320;50.082;20.000;2024-01-30T12:27:45;25.40;24.10
21085;DHT22;72320;50.082;20.000;2024-01-30T12:30:15;25.40;23.70
21085;DHT22;72320;50.082;20.000;2024-01-30T12:32:43;25.50;23.80
21085;DHT22;72320;50.082;20.000;2024-01-30T12:35:12;25.60;23.50
21085;DHT22;72320;50.082;20.000;2024-01-30T12:37:40;25.70;23.20
21085;DHT22;72320;50.082;20.000;2024-01-30T12:40:08;25.60;22.90
21085;DHT22;72320;50.082;20.000;2024-01-30T12:42:35;25.30;23.10
21085;DHT22;72320;50.082;20.000;2024-01-30T12:45:04;24.80;23.60
21085;DHT22;72320;50.082;20.000;2024-01-30T12:47:31;24.60;24.20
21085;DHT22;72320;50.082;20.000;2024-01-30T12:49:57;24.60;24.00
21085;DHT22;72320;50.082;20.000;2024-01-30T12:52:24;24.50;24.10
21085;DHT22;72320;50.082;20.000;2024-01-30T12:54:50;24.50;24.20
21085;DHT22;72320;50.082;20.000;2024-01-30T12:57:17;24.50;23.90
21085;DHT22;72320;50.082;20.000;2024-01-30T12:59:44;24.50;24.60
21085;DHT22;72320;50.082;20.000;2024-01-30T13:02:12;24.50;24.70
21085;DHT22;72320;50.082;20.000;2024-01-30T13:04:39;24.60;24.10
21085;DHT22;72320;50.082;20.000;2024-01-30T13:07:05;24.70;24.50
21085;DHT22;72320;50.082;20.000;2024-01-30T13:09:31;24.70;24.70
21085;DHT22;72320;50.082;20.000;2024-01-30T13:11:58;24.60;24.60
21085;DHT22;72320;50.082;20.000;2024-01-30T13:14:25;24.60;24.60
21085;DHT22;72320;50.082;20.000;2024-01-30T13:16:51;24.70;24.60
21085;DHT22;72320;50.082;20.000;2024-01-30T13:19:18;24.60;24.90
21085;DHT22;72320;50.082;20.000;2024-01-30T13:21:43;24.50;24.50
21085;DHT22;72320;50.082;20.000;2024-01-30T13:24:10;24.40;25.10
21085;DHT22;72320;50.082;20.000;2024-01-30T13:26:35;24.30;25.50
21085;DHT22;72320;50.082;20.000;2024-01-30T13:29:02;24.40;25.20
21085;DHT22;72320;50.082;20.000;2024-01-30T13:31:29;24.30;25.10
21085;DHT22;72320;50.082;20.000;2024-01-30T13:33:56;24.30;25.00
21085;DHT22;72320;50.082;20.000;2024-01-30T13:36:21;24.30;25.20
21085;DHT22;72320;50.082;20.000;2024-01-30T13:38:48;24.20;25.50
21085;DHT22;72320;50.082;20.000;2024-01-30T13:41:14;24.20;25.60
21085;DHT22;72320;50.082;20.000;2024-01-30T13:43:40;24.10;26.70
21085;DHT22;72320;50.082;20.000;2024-01-30T13:46:06;23.80;27.10
21085;DHT22;72320;50.082;20.000;2024-01-30T13:48:31;23.40;27.90
21085;DHT22;72320;50.082;20.000;2024-01-30T13:50:57;23.00;28.50
21085;DHT22;72320;50.082;20.000;2024-01-30T13:53:23;22.60;29.30
21085;DHT22;72320;50.082;20.000;2024-01-30T13:55:49;22.70;29.40
21085;DHT22;72320;50.082;20.000;2024-01-30T13:58:15;22.50;29.90
21085;DHT22;72320;50.082;20.000;2024-01-30T14:00:41;22.30;29.60
21085;DHT22;72320;50.082;20.000;2024-01-30T14:03:06;22.10;30.30
21085;DHT22;72320;50.082;20.000;2024-01-30T14:05:32;22.20;30.20
21085;DHT22;72320;50.082;20.000;2024-01-30T14:07:58;22.20;29.90
21085;DHT22;72320;50.082;20.000;2024-01-30T14:10:25;22.10;30.30
21085;DHT22;72320;50.082;20.000;2024-01-30T14:12:51;22.00;30.10
21085;DHT22;72320;50.082;20.000;2024-01-30T14:15:17;21.80;30.50
21085;DHT22;72320;50.082;20.000;2024-01-30T14:17:43;21.60;30.90
21085;DHT22;72320;50.082;20.000;2024-01-30T14:20:10;21.60;31.00
21085;DHT22;72320;50.082;20.000;2024-01-30T14:22:37;21.60;31.20
21085;DHT22;72320;50.082;20.000;2024-01-30T14:25:03;21.60;30.90
21085;DHT22;72320;50.082;20.000;2024-01-30T14:27:30;21.60;31.00
21085;DHT22;72320;50.082;20.000;2024-01-30T14:29:57;21.60;31.30
21085;DHT22;72320;50.082;20.000;2024-01-30T14:32:23;21.60;31.40
21085;DHT22;72320;50.082;20.000;2024-01-30T14:34:50;21.60;31.40
21085;DHT22;72320;50.082;20.000;2024-01-30T14:37:17;21.70;31.30
21085;DHT22;72320;50.082;20.000;2024-01-30T14:39:44;21.60;31.40
21085;DHT22;72320;50.082;20.000;2024-01-30T14:42:10;21.50;31.50
21085;DHT22;72320;50.082;20.000;2024-01-30T14:44:36;21.40;31.60
21085;DHT22;72320;50.082;20.000;2024-01-30T14:47:02;21.30;31.90
21085;DHT22;72320;50.082;20.000;2024-01-30T14:49:28;21.30;31.90
21085;DHT22;72320;50.082;20.000;2024-01-30T14:51:54;21.20;32.00
21085;DHT22;72320;50.082;20.000;2024-01-30T14:54:19;21.00;32.10
21085;DHT22;72320;50.082;20.000;2024-01-30T14:56:45;21.10;32.40
21085;DHT22;72320;50.082;20.000;2024-01-30T14:59:11;21.20;32.30
21085;DHT22;72320;50.082;20.000;2024-01-30T15:01:37;21.30;32.50
21085;DHT22;72320;50.082;20.000;2024-01-30T15:04:03;21.50;32.30
21085;DHT22;72320;50.082;20.000;2024-01-30T15:06:29;21.50;31.80
21085;DHT22;72320;50.082;20.000;2024-01-30T15:08:55;21.50;31.70
21085;DHT22;72320;50.082;20.000;2024-01-30T15:11:21;21.50;31.80
21085;DHT22;72320;50.082;20.000;2024-01-30T15:13:47;21.50;31.90
21085;DHT22;72320;50.082;20.000;2024-01-30T15:16:13;21.50;31.60
21085;DHT22;72320;50.082;20.000;2024-01-30T15:18:39;21.50;31.60